EDDL/DUS METAR and TAF weather

Enter ICAO airport designator
Station Type Date Time Source
EDDL METAR 2018/01/19 22:50 UTC NOAA

EDDL 192250Z 21010KT 9999 FEW032 SCT070 02/00 Q1009 NOSIG


Station Type Date Time Source
EDDL Decoded METAR 2018/01/19 22:50 UTC NOAA

Duesseldorf, Germany (EDDL) 51-18N 006-46E 41M
Jan 19, 2018 - 05:50 PM EST / 2018.01.19 2250 UTC
Wind: from the SSW (210 degrees) at 12 MPH (10 KT):0
Visibility: greater than 7 mile(s):0
Sky conditions: partly cloudy
Temperature: 35 F (2 C)
Windchill: 26 F (-3 C):1
Dew Point: 32 F (0 C)
Relative Humidity: 86%
Pressure (altimeter): 29.80 in. Hg (1009 hPa)
ob: EDDL 192250Z 21010KT 9999 FEW032 SCT070 02/00 Q1009 NOSIG
cycle: 23

Station Type Date Time Source
EDDL TAF 2018/01/19 18:28 UTC NOAA

TAF EDDL 191700Z 1918/2024 22009KT 9999 SCT025 PROB30
TEMPO 1918/2003 2500 SHSNRA BKN012CB
BECMG 2006/2009 16009KT
TEMPO 2017/2024 RA
BECMG 2017/2020 04009KT BKN010 PROB30
TEMPO 2019/2024 2000 RASN BKN004
BECMG 2021/2024 33009KT


Example: see airport list